sensor_id;sensor_type;location;lat;lon;timestamp;pressure;altitude;pressure_sealevel;temperature;humidity
60240;BME280;46102;39.012;-7.064;2024-02-16T00:00:22;99050.56;;;11.25;100.00
60240;BME280;46102;39.012;-7.064;2024-02-16T00:02:23;99047.63;;;11.22;100.00
60240;BME280;46102;39.012;-7.064;2024-02-16T00:04:24;99048.56;;;11.17;100.00
60240;BME280;46102;39.012;-7.064;2024-02-16T00:06:25;99051.31;;;11.17;100.00
60240;BME280;46102;39.012;-7.064;2024-02-16T00:08:26;99052.91;;;11.18;100.00
60240;BME280;46102;39.012;-7.064;2024-02-16T00:10:26;99054.13;;;11.12;100.00
60240;BME280;46102;39.012;-7.064;2024-02-16T00:12:27;99041.25;;;11.13;100.00
60240;BME280;46102;39.012;-7.064;2024-02-16T00:14:28;99039.94;;;11.10;100.00
60240;BME280;46102;39.012;-7.064;2024-02-16T00:16:29;99042.25;;;11.03;100.00
60240;BME280;46102;39.012;-7.064;2024-02-16T00:18:29;99042.47;;;11.07;100.00
60240;BME280;46102;39.012;-7.064;2024-02-16T00:20:30;99042.19;;;11.08;100.00
60240;BME280;46102;39.012;-7.064;2024-02-16T00:22:31;99041.34;;;11.08;100.00
60240;BME280;46102;39.012;-7.064;2024-02-16T00:24:33;99028.75;;;11.07;100.00
60240;BME280;46102;39.012;-7.064;2024-02-16T00:26:34;99033.72;;;11.04;100.00
60240;BME280;46102;39.012;-7.064;2024-02-16T00:28:34;99026.31;;;11.05;100.00
60240;BME280;46102;39.012;-7.064;2024-02-16T00:30:35;99038.59;;;11.08;100.00
60240;BME280;46102;39.012;-7.064;2024-02-16T00:32:36;99028.25;;;11.04;100.00
60240;BME280;46102;39.012;-7.064;2024-02-16T00:34:37;99027.94;;;11.06;100.00
60240;BME280;46102;39.012;-7.064;2024-02-16T00:36:39;99023.25;;;11.07;100.00
60240;BME280;46102;39.012;-7.064;2024-02-16T00:38:40;99031.19;;;11.08;100.00
60240;BME280;46102;39.012;-7.064;2024-02-16T00:40:41;99038.59;;;11.08;100.00
60240;BME280;46102;39.012;-7.064;2024-02-16T00:42:44;99029.56;;;11.07;100.00
60240;BME280;46102;39.012;-7.064;2024-02-16T00:44:44;99032.81;;;11.09;100.00
60240;BME280;46102;39.012;-7.064;2024-02-16T00:46:45;99035.53;;;11.09;100.00
60240;BME280;46102;39.012;-7.064;2024-02-16T00:48:46;99029.44;;;11.12;100.00
60240;BME280;46102;39.012;-7.064;2024-02-16T00:50:47;99037.66;;;11.12;100.00
60240;BME280;46102;39.012;-7.064;2024-02-16T00:52:48;99040.41;;;11.12;100.00
60240;BME280;46102;39.012;-7.064;2024-02-16T00:54:49;99034.31;;;11.15;100.00
60240;BME280;46102;39.012;-7.064;2024-02-16T00:56:50;99039.81;;;11.15;100.00
60240;BME280;46102;39.012;-7.064;2024-02-16T00:58:50;99059.03;;;11.15;100.00
60240;BME280;46102;39.012;-7.064;2024-02-16T01:00:51;99053.53;;;11.15;100.00
60240;BME280;46102;39.012;-7.064;2024-02-16T01:02:53;99063.41;;;11.16;100.00
60240;BME280;46102;39.012;-7.064;2024-02-16T01:04:54;99060.13;;;11.14;100.00
60240;BME280;46102;39.012;-7.064;2024-02-16T01:06:58;99059.34;;;11.14;100.00
60240;BME280;46102;39.012;-7.064;2024-02-16T01:08:59;99058.53;;;11.13;100.00
60240;BME280;46102;39.012;-7.064;2024-02-16T01:11:00;99056.09;;;11.12;100.00
60240;BME280;46102;39.012;-7.064;2024-02-16T01:13:01;99059.97;;;11.11;100.00
60240;BME280;46102;39.012;-7.064;2024-02-16T01:15:04;99063.00;;;11.09;100.00
60240;BME280;46102;39.012;-7.064;2024-02-16T01:17:05;99059.44;;;11.09;100.00
60240;BME280;46102;39.012;-7.064;2024-02-16T01:19:06;99058.03;;;11.11;100.00
60240;BME280;46102;39.012;-7.064;2024-02-16T01:21:07;99067.88;;;11.12;100.00
60240;BME280;46102;39.012;-7.064;2024-02-16T01:23:09;99068.72;;;11.13;100.00
60240;BME280;46102;39.012;-7.064;2024-02-16T01:25:10;99065.44;;;11.11;100.00
60240;BME280;46102;39.012;-7.064;2024-02-16T01:27:10;99069.00;;;11.11;100.00
60240;BME280;46102;39.012;-7.064;2024-02-16T01:29:11;99066.06;;;11.08;100.00
60240;BME280;46102;39.012;-7.064;2024-02-16T01:31:12;99074.63;;;11.06;100.00
60240;BME280;46102;39.012;-7.064;2024-02-16T01:33:13;99081.22;;;11.05;100.00
60240;BME280;46102;39.012;-7.064;2024-02-16T01:35:14;99081.22;;;11.05;100.00
60240;BME280;46102;39.012;-7.064;2024-02-16T01:37:16;99087.84;;;11.04;100.00
60240;BME280;46102;39.012;-7.064;2024-02-16T01:39:17;99093.63;;;11.02;100.00
60240;BME280;46102;39.012;-7.064;2024-02-16T01:41:18;99102.38;;;11.04;100.00
60240;BME280;46102;39.012;-7.064;2024-02-16T01:43:22;99104.31;;;11.04;100.00
60240;BME280;46102;39.012;-7.064;2024-02-16T01:45:22;99101.25;;;11.06;100.00
60240;BME280;46102;39.012;-7.064;2024-02-16T01:47:23;99097.38;;;11.07;100.00
60240;BME280;46102;39.012;-7.064;2024-02-16T01:49:24;99099.31;;;11.06;100.00
60240;BME280;46102;39.012;-7.064;2024-02-16T01:51:25;99107.34;;;11.02;100.00
60240;BME280;46102;39.012;-7.064;2024-02-16T01:53:26;99106.75;;;11.06;100.00
60240;BME280;46102;39.012;-7.064;2024-02-16T01:55:27;99099.91;;;11.03;100.00
60240;BME280;46102;39.012;-7.064;2024-02-16T01:57:31;99107.06;;;11.04;100.00
60240;BME280;46102;39.012;-7.064;2024-02-16T01:59:32;99108.66;;;11.05;100.00
60240;BME280;46102;39.012;-7.064;2024-02-16T02:01:34;99109.00;;;11.03;100.00
60240;BME280;46102;39.012;-7.064;2024-02-16T02:03:34;99113.97;;;11.01;100.00
60240;BME280;46102;39.012;-7.064;2024-02-16T02:05:43;99113.66;;;11.03;100.00
60240;BME280;46102;39.012;-7.064;2024-02-16T02:07:46;99125.66;;;11.07;100.00
60240;BME280;46102;39.012;-7.064;2024-02-16T02:09:46;99127.09;;;11.04;100.00
60240;BME280;46102;39.012;-7.064;2024-02-16T02:11:47;99125.13;;;11.05;100.00
60240;BME280;46102;39.012;-7.064;2024-02-16T02:13:48;99127.59;;;11.07;100.00
60240;BME280;46102;39.012;-7.064;2024-02-16T02:15:49;99128.41;;;11.07;100.00
60240;BME280;46102;39.012;-7.064;2024-02-16T02:17:50;99135.81;;;11.07;100.00
60240;BME280;46102;39.012;-7.064;2024-02-16T02:19:50;99136.44;;;11.03;100.00
60240;BME280;46102;39.012;-7.064;2024-02-16T02:21:51;99135.53;;;11.08;100.00
60240;BME280;46102;39.012;-7.064;2024-02-16T02:23:52;99141.03;;;11.08;100.00
60240;BME280;46102;39.012;-7.064;2024-02-16T02:25:53;99147.31;;;11.09;100.00
60240;BME280;46102;39.012;-7.064;2024-02-16T02:27:54;99149.78;;;11.10;100.00
60240;BME280;46102;39.012;-7.064;2024-02-16T02:29:55;99153.50;;;11.14;100.00
60240;BME280;46102;39.012;-7.064;2024-02-16T02:31:56;99152.69;;;11.14;100.00
60240;BME280;46102;39.012;-7.064;2024-02-16T02:33:57;99150.47;;;11.16;100.00
60240;BME280;46102;39.012;-7.064;2024-02-16T02:35:58;99157.28;;;11.18;100.00
60240;BME280;46102;39.012;-7.064;2024-02-16T02:37:58;99159.50;;;11.16;100.00
60240;BME280;46102;39.012;-7.064;2024-02-16T02:39:59;99158.41;;;11.17;100.00
60240;BME280;46102;39.012;-7.064;2024-02-16T02:42:00;99151.78;;;11.18;100.00
60240;BME280;46102;39.012;-7.064;2024-02-16T02:44:01;99159.22;;;11.18;100.00
60240;BME280;46102;39.012;-7.064;2024-02-16T02:46:01;99157.47;;;11.22;100.00
60240;BME280;46102;39.012;-7.064;2024-02-16T02:48:02;99159.22;;;11.18;100.00
60240;BME280;46102;39.012;-7.064;2024-02-16T02:50:03;99156.16;;;11.19;100.00
60240;BME280;46102;39.012;-7.064;2024-02-16T02:52:05;99165.72;;;11.22;100.00
60240;BME280;46102;39.012;-7.064;2024-02-16T02:54:07;99171.22;;;11.22;100.00
60240;BME280;46102;39.012;-7.064;2024-02-16T02:56:07;99175.91;;;11.21;100.00
60240;BME280;46102;39.012;-7.064;2024-02-16T02:58:08;99176.72;;;11.22;100.00
60240;BME280;46102;39.012;-7.064;2024-02-16T03:00:09;99177.22;;;11.24;100.00
60240;BME280;46102;39.012;-7.064;2024-02-16T03:02:13;99189.31;;;11.23;100.00
60240;BME280;46102;39.012;-7.064;2024-02-16T03:04:14;99185.13;;;11.25;100.00
60240;BME280;46102;39.012;-7.064;2024-02-16T03:06:18;99195.59;;;11.23;100.00
60240;BME280;46102;39.012;-7.064;2024-02-16T03:08:19;99181.88;;;11.23;100.00
60240;BME280;46102;39.012;-7.064;2024-02-16T03:10:20;99186.78;;;11.27;100.00
60240;BME280;46102;39.012;-7.064;2024-02-16T03:12:22;99179.84;;;11.29;100.00
60240;BME280;46102;39.012;-7.064;2024-02-16T03:14:23;99181.16;;;11.32;100.00
60240;BME280;46102;39.012;-7.064;2024-02-16T03:16:24;99186.16;;;11.30;100.00
60240;BME280;46102;39.012;-7.064;2024-02-16T03:18:24;99185.03;;;11.31;100.00
60240;BME280;46102;39.012;-7.064;2024-02-16T03:20:25;99183.63;;;11.33;100.00
60240;BME280;46102;39.012;-7.064;2024-02-16T03:22:26;99187.97;;;11.34;100.00
60240;BME280;46102;39.012;-7.064;2024-02-16T03:24:27;99180.25;;;11.36;100.00
60240;BME280;46102;39.012;-7.064;2024-02-16T03:26:27;99178.81;;;11.39;100.00
60240;BME280;46102;39.012;-7.064;2024-02-16T03:28:28;99180.13;;;11.41;100.00
60240;BME280;46102;39.012;-7.064;2024-02-16T03:30:29;99181.78;;;11.42;100.00
60240;BME280;46102;39.012;-7.064;2024-02-16T03:32:31;99175.97;;;11.44;100.00
60240;BME280;46102;39.012;-7.064;2024-02-16T03:34:32;99179.22;;;11.46;100.00
60240;BME280;46102;39.012;-7.064;2024-02-16T03:36:32;99179.22;;;11.46;100.00
60240;BME280;46102;39.012;-7.064;2024-02-16T03:38:33;99181.47;;;11.44;100.00
60240;BME280;46102;39.012;-7.064;2024-02-16T03:40:34;99175.13;;;11.43;100.00
60240;BME280;46102;39.012;-7.064;2024-02-16T03:42:36;99183.72;;;11.42;100.00
60240;BME280;46102;39.012;-7.064;2024-02-16T03:44:36;99180.13;;;11.41;100.00
60240;BME280;46102;39.012;-7.064;2024-02-16T03:46:37;99174.03;;;11.44;100.00
60240;BME280;46102;39.012;-7.064;2024-02-16T03:48:39;99176.47;;;11.46;100.00
60240;BME280;46102;39.012;-7.064;2024-02-16T03:50:40;99162.94;;;11.50;100.00
60240;BME280;46102;39.012;-7.064;2024-02-16T03:52:41;99161.19;;;11.54;100.00
60240;BME280;46102;39.012;-7.064;2024-02-16T03:54:42;99158.16;;;11.55;100.00
60240;BME280;46102;39.012;-7.064;2024-02-16T03:56:44;99158.16;;;11.55;100.00
60240;BME280;46102;39.012;-7.064;2024-02-16T03:58:45;99144.41;;;11.55;100.00
60240;BME280;46102;39.012;-7.064;2024-02-16T04:00:46;99160.56;;;11.57;100.00
60240;BME280;46102;39.012;-7.064;2024-02-16T04:02:49;99152.81;;;11.59;100.00
60240;BME280;46102;39.012;-7.064;2024-02-16T04:04:50;99165.47;;;11.60;100.00
60240;BME280;46102;39.012;-7.064;2024-02-16T04:06:50;99163.22;;;11.62;100.00
60240;BME280;46102;39.012;-7.064;2024-02-16T04:08:51;99165.63;;;11.63;100.00
60240;BME280;46102;39.012;-7.064;2024-02-16T04:10:52;99164.53;;;11.64;100.00
60240;BME280;46102;39.012;-7.064;2024-02-16T04:12:52;99168.09;;;11.65;100.00
60240;BME280;46102;39.012;-7.064;2024-02-16T04:14:53;99169.69;;;11.66;100.00
60240;BME280;46102;39.012;-7.064;2024-02-16T04:16:54;99163.09;;;11.67;100.00
60240;BME280;46102;39.012;-7.064;2024-02-16T04:18:58;99163.91;;;11.67;100.00
60240;BME280;46102;39.012;-7.064;2024-02-16T04:20:59;99154.03;;;11.66;100.00
60240;BME280;46102;39.012;-7.064;2024-02-16T04:23:00;99161.44;;;11.66;100.00
60240;BME280;46102;39.012;-7.064;2024-02-16T04:25:01;99163.09;;;11.67;100.00
60240;BME280;46102;39.012;-7.064;2024-02-16T04:27:02;99168.09;;;11.65;100.00
60240;BME280;46102;39.012;-7.064;2024-02-16T04:29:03;99167.47;;;11.68;100.00
60240;BME280;46102;39.012;-7.064;2024-02-16T04:31:05;99157.31;;;11.69;100.00
60240;BME280;46102;39.012;-7.064;2024-02-16T04:33:05;99150.38;;;11.71;100.00
60240;BME280;46102;39.012;-7.064;2024-02-16T04:35:06;99154.72;;;11.72;100.00
60240;BME280;46102;39.012;-7.064;2024-02-16T04:37:13;99160.53;;;11.71;100.00
60240;BME280;46102;39.012;-7.064;2024-02-16T04:39:14;99154.72;;;11.72;100.00
60240;BME280;46102;39.012;-7.064;2024-02-16T04:41:15;99162.97;;;11.72;100.00
60240;BME280;46102;39.012;-7.064;2024-02-16T04:43:16;99172.34;;;11.71;100.00
60240;BME280;46102;39.012;-7.064;2024-02-16T04:45:17;99165.72;;;11.72;100.00
60240;BME280;46102;39.012;-7.064;2024-02-16T04:47:18;99162.97;;;11.72;100.00
60240;BME280;46102;39.012;-7.064;2024-02-16T04:49:18;99165.09;;;11.75;100.00
60240;BME280;46102;39.012;-7.064;2024-02-16T04:51:19;99173.53;;;11.79;100.00
60240;BME280;46102;39.012;-7.064;2024-02-16T04:53:20;99182.59;;;11.79;100.00
60240;BME280;46102;39.012;-7.064;2024-02-16T04:55:21;99183.44;;;11.80;100.00
60240;BME280;46102;39.012;-7.064;2024-02-16T04:57:22;99174.03;;;11.81;100.00
60240;BME280;46102;39.012;-7.064;2024-02-16T04:59:22;99167.41;;;11.82;100.00
60240;BME280;46102;39.012;-7.064;2024-02-16T05:01:23;99165.16;;;11.84;100.00
60240;BME280;46102;39.012;-7.064;2024-02-16T05:03:24;99163.25;;;11.84;100.00
60240;BME280;46102;39.012;-7.064;2024-02-16T05:05:25;99166.47;;;11.86;100.00
60240;BME280;46102;39.012;-7.064;2024-02-16T05:07:26;99169.75;;;11.88;100.00
60240;BME280;46102;39.012;-7.064;2024-02-16T05:09:27;99170.28;;;11.91;100.00
60240;BME280;46102;39.012;-7.064;2024-02-16T05:11:31;99172.72;;;11.92;100.00
60240;BME280;46102;39.012;-7.064;2024-02-16T05:13:32;99184.34;;;11.89;100.00
60240;BME280;46102;39.012;-7.064;2024-02-16T05:15:33;99180.22;;;11.86;100.00
60240;BME280;46102;39.012;-7.064;2024-02-16T05:17:34;99181.91;;;11.87;100.00
60240;BME280;46102;39.012;-7.064;2024-02-16T05:19:34;99181.06;;;11.87;100.00
60240;BME280;46102;39.012;-7.064;2024-02-16T05:21:37;99181.59;;;11.89;100.00
60240;BME280;46102;39.012;-7.064;2024-02-16T05:23:38;99184.00;;;11.91;100.00
60240;BME280;46102;39.012;-7.064;2024-02-16T05:25:38;99177.41;;;11.92;100.00
60240;BME280;46102;39.012;-7.064;2024-02-16T05:27:40;99175.97;;;11.94;100.00
60240;BME280;46102;39.012;-7.064;2024-02-16T05:29:41;99186.16;;;11.94;100.00
60240;BME280;46102;39.012;-7.064;2024-02-16T05:31:41;99185.03;;;11.95;100.00
60240;BME280;46102;39.012;-7.064;2024-02-16T05:33:44;99181.47;;;11.94;100.00
60240;BME280;46102;39.012;-7.064;2024-02-16T05:35:45;99186.16;;;11.94;100.00
60240;BME280;46102;39.012;-7.064;2024-02-16T05:37:51;99189.22;;;11.92;100.00
60240;BME280;46102;39.012;-7.064;2024-02-16T05:39:52;99187.59;;;11.91;100.00
60240;BME280;46102;39.012;-7.064;2024-02-16T05:42:08;99189.84;;;11.89;100.00
60240;BME280;46102;39.012;-7.064;2024-02-16T05:44:09;99198.91;;;11.90;100.00
60240;BME280;46102;39.012;-7.064;2024-02-16T05:46:15;99194.50;;;11.88;100.00
60240;BME280;46102;39.012;-7.064;2024-02-16T05:48:16;99200.84;;;11.89;100.00
60240;BME280;46102;39.012;-7.064;2024-02-16T05:50:17;99209.41;;;11.87;100.00
60240;BME280;46102;39.012;-7.064;2024-02-16T05:52:18;99201.94;;;11.88;100.00
60240;BME280;46102;39.012;-7.064;2024-02-16T05:54:19;99208.56;;;11.87;100.00
60240;BME280;46102;39.012;-7.064;2024-02-16T05:56:20;99210.00;;;11.84;100.00
60240;BME280;46102;39.012;-7.064;2024-02-16T05:58:21;99206.41;;;11.84;100.00
60240;BME280;46102;39.012;-7.064;2024-02-16T06:00:21;99207.53;;;11.83;100.00
60240;BME280;46102;39.012;-7.064;2024-02-16T06:02:22;99212.22;;;11.82;100.00
60240;BME280;46102;39.012;-7.064;2024-02-16T06:04:26;99207.53;;;11.83;100.00
60240;BME280;46102;39.012;-7.064;2024-02-16T06:06:27;99207.25;;;11.84;100.00
60240;BME280;46102;39.012;-7.064;2024-02-16T06:08:27;99205.09;;;11.81;100.00
60240;BME280;46102;39.012;-7.064;2024-02-16T06:10:28;99203.78;;;11.79;100.00
60240;BME280;46102;39.012;-7.064;2024-02-16T06:12:29;99199.22;;;11.74;100.00
60240;BME280;46102;39.012;-7.064;2024-02-16T06:14:31;99205.34;;;11.71;100.00
60240;BME280;46102;39.012;-7.064;2024-02-16T06:16:32;99200.66;;;11.72;100.00
60240;BME280;46102;39.012;-7.064;2024-02-16T06:18:32;99192.09;;;11.73;100.00
60240;BME280;46102;39.012;-7.064;2024-02-16T06:20:33;99194.84;;;11.73;100.00
60240;BME280;46102;39.012;-7.064;2024-02-16T06:22:34;99188.50;;;11.73;100.00
60240;BME280;46102;39.012;-7.064;2024-02-16T06:24:35;99197.38;;;11.70;100.00
60240;BME280;46102;39.012;-7.064;2024-02-16T06:26:36;99190.28;;;11.69;100.00
60240;BME280;46102;39.012;-7.064;2024-02-16T06:28:37;99210.13;;;11.65;100.00
60240;BME280;46102;39.012;-7.064;2024-02-16T06:30:37;99214.50;;;11.66;100.00
60240;BME280;46102;39.012;-7.064;2024-02-16T06:32:39;99219.28;;;11.61;100.00
60240;BME280;46102;39.012;-7.064;2024-02-16T06:34:40;99215.34;;;11.53;100.00
60240;BME280;46102;39.012;-7.064;2024-02-16T06:36:42;99227.66;;;11.56;100.00
60240;BME280;46102;39.012;-7.064;2024-02-16T06:38:42;99231.31;;;11.51;100.00
60240;BME280;46102;39.012;-7.064;2024-02-16T06:40:43;99230.81;;;11.49;100.00
60240;BME280;46102;39.012;-7.064;2024-02-16T06:42:44;99227.56;;;11.47;100.00
60240;BME280;46102;39.012;-7.064;2024-02-16T06:44:45;99225.63;;;11.48;100.00
60240;BME280;46102;39.012;-7.064;2024-02-16T06:46:45;99233.84;;;11.48;100.00
60240;BME280;46102;39.012;-7.064;2024-02-16T06:48:46;99226.25;;;11.44;100.00
60240;BME280;46102;39.012;-7.064;2024-02-16T06:50:47;99234.47;;;11.44;100.00
60240;BME280;46102;39.012;-7.064;2024-02-16T06:52:48;99234.47;;;11.44;100.00
60240;BME280;46102;39.012;-7.064;2024-02-16T06:54:48;99236.94;;;11.46;100.00
60240;BME280;46102;39.012;-7.064;2024-02-16T06:56:50;99243.53;;;11.45;100.00
60240;BME280;46102;39.012;-7.064;2024-02-16T06:58:54;99242.72;;;11.44;100.00
60240;BME280;46102;39.012;-7.064;2024-02-16T07:00:54;99240.78;;;11.45;100.00
60240;BME280;46102;39.012;-7.064;2024-02-16T07:02:55;99247.41;;;11.44;100.00
60240;BME280;46102;39.012;-7.064;2024-02-16T07:04:56;99238.94;;;11.40;100.00
60240;BME280;46102;39.012;-7.064;2024-02-16T07:06:57;99255.44;;;11.40;100.00
60240;BME280;46102;39.012;-7.064;2024-02-16T07:08:57;99259.50;;;11.43;100.00
60240;BME280;46102;39.012;-7.064;2024-02-16T07:10:58;99249.94;;;11.40;100.00
60240;BME280;46102;39.012;-7.064;2024-02-16T07:13:00;99241.69;;;11.40;100.00
60240;BME280;46102;39.012;-7.064;2024-02-16T07:15:01;99238.44;;;11.38;100.00
60240;BME280;46102;39.012;-7.064;2024-02-16T07:17:01;99239.25;;;11.39;100.00
60240;BME280;46102;39.012;-7.064;2024-02-16T07:19:02;99246.38;;;11.40;100.00
60240;BME280;46102;39.012;-7.064;2024-02-16T07:21:03;99250.56;;;11.37;100.00
60240;BME280;46102;39.012;-7.064;2024-02-16T07:23:04;99252.97;;;11.39;100.00
60240;BME280;46102;39.012;-7.064;2024-02-16T07:25:05;99250.75;;;11.41;100.00
60240;BME280;46102;39.012;-7.064;2024-02-16T07:27:06;99259.31;;;11.39;100.00
60240;BME280;46102;39.012;-7.064;2024-02-16T07:29:06;99271.91;;;11.40;100.00
60240;BME280;46102;39.012;-7.064;2024-02-16T07:31:07;99274.66;;;11.40;100.00
60240;BME280;46102;39.012;-7.064;2024-02-16T07:33:08;99284.84;;;11.40;100.00
60240;BME280;46102;39.012;-7.064;2024-02-16T07:35:09;99282.09;;;11.40;100.00
60240;BME280;46102;39.012;-7.064;2024-02-16T07:37:10;99298.59;;;11.40;100.00
60240;BME280;46102;39.012;-7.064;2024-02-16T07:39:11;99291.16;;;11.40;100.00
60240;BME280;46102;39.012;-7.064;2024-02-16T07:41:12;99293.09;;;11.40;100.00
60240;BME280;46102;39.012;-7.064;2024-02-16T07:43:13;99299.09;;;11.42;100.00
60240;BME280;46102;39.012;-7.064;2024-02-16T07:45:16;99300.94;;;11.46;100.00
60240;BME280;46102;39.012;-7.064;2024-02-16T07:47:17;99298.69;;;11.62;100.00
60240;BME280;46102;39.012;-7.064;2024-02-16T07:49:17;99297.88;;;11.90;100.00
60240;BME280;46102;39.012;-7.064;2024-02-16T07:51:18;99298.50;;;12.59;100.00
60240;BME280;46102;39.012;-7.064;2024-02-16T07:53:19;99301.91;;;12.87;100.00
60240;BME280;46102;39.012;-7.064;2024-02-16T07:55:20;99309.16;;;12.83;100.00
60240;BME280;46102;39.012;-7.064;2024-02-16T07:57:24;99315.59;;;12.70;100.00
60240;BME280;46102;39.012;-7.064;2024-02-16T07:59:25;99320.19;;;12.61;100.00
60240;BME280;46102;39.012;-7.064;2024-02-16T08:01:26;99330.66;;;12.50;100.00
60240;BME280;46102;39.012;-7.064;2024-02-16T08:03:27;99321.38;;;12.46;100.00
60240;BME280;46102;39.012;-7.064;2024-02-16T08:05:28;99316.81;;;12.41;100.00
60240;BME280;46102;39.012;-7.064;2024-02-16T08:07:28;99317.47;;;12.47;100.00
60240;BME280;46102;39.012;-7.064;2024-02-16T08:09:30;99310.44;;;12.55;100.00
60240;BME280;46102;39.012;-7.064;2024-02-16T08:11:31;99315.81;;;12.60;100.00
60240;BME280;46102;39.012;-7.064;2024-02-16T08:13:32;99324.78;;;12.65;100.00
60240;BME280;46102;39.012;-7.064;2024-02-16T08:15:33;99332.41;;;12.68;100.00
60240;BME280;46102;39.012;-7.064;2024-02-16T08:17:35;99335.03;;;12.74;100.00
60240;BME280;46102;39.012;-7.064;2024-02-16T08:19:36;99346.25;;;12.77;100.00
60240;BME280;46102;39.012;-7.064;2024-02-16T08:21:37;99356.38;;;12.90;100.00
60240;BME280;46102;39.012;-7.064;2024-02-16T08:23:38;99366.00;;;13.02;100.00
60240;BME280;46102;39.012;-7.064;2024-02-16T08:25:39;99364.13;;;13.11;100.00
60240;BME280;46102;39.012;-7.064;2024-02-16T08:27:39;99359.66;;;13.24;100.00
60240;BME280;46102;39.012;-7.064;2024-02-16T08:29:40;99353.09;;;13.33;100.00
60240;BME280;46102;39.012;-7.064;2024-02-16T08:31:41;99356.53;;;13.39;100.00
60240;BME280;46102;39.012;-7.064;2024-02-16T08:33:42;99354.47;;;13.45;100.00
60240;BME280;46102;39.012;-7.064;2024-02-16T08:35:43;99358.34;;;13.44;100.00
60240;BME280;46102;39.012;-7.064;2024-02-16T08:37:44;99362.81;;;13.31;100.00
60240;BME280;46102;39.012;-7.064;2024-02-16T08:39:45;99355.91;;;13.20;100.00
60240;BME280;46102;39.012;-7.064;2024-02-16T08:41:46;99356.81;;;13.06;100.00
60240;BME280;46102;39.012;-7.064;2024-02-16T08:43:49;99351.84;;;12.95;100.00
60240;BME280;46102;39.012;-7.064;2024-02-16T08:45:50;99358.81;;;12.92;100.00
60240;BME280;46102;39.012;-7.064;2024-02-16T08:47:51;99357.69;;;12.93;100.00
60240;BME280;46102;39.012;-7.064;2024-02-16T08:49:51;99360.81;;;13.00;100.00
60240;BME280;46102;39.012;-7.064;2024-02-16T08:51:52;99362.25;;;13.20;100.00
60240;BME280;46102;39.012;-7.064;2024-02-16T08:53:53;99367.44;;;13.44;100.00
60240;BME280;46102;39.012;-7.064;2024-02-16T08:55:54;99367.84;;;13.69;100.00
60240;BME280;46102;39.012;-7.064;2024-02-16T08:57:54;99370.88;;;13.90;100.00
60240;BME280;46102;39.012;-7.064;2024-02-16T08:59:55;99368.63;;;14.09;100.00
60240;BME280;46102;39.012;-7.064;2024-02-16T09:01:56;99374.53;;;14.34;100.00
60240;BME280;46102;39.012;-7.064;2024-02-16T09:03:59;99372.59;;;14.52;100.00
60240;BME280;46102;39.012;-7.064;2024-02-16T09:06:00;99369.25;;;14.64;100.00
60240;BME280;46102;39.012;-7.064;2024-02-16T09:08:02;99365.66;;;14.72;100.00
60240;BME280;46102;39.012;-7.064;2024-02-16T09:10:04;99374.28;;;14.70;100.00
60240;BME280;46102;39.012;-7.064;2024-02-16T09:12:05;99375.41;;;14.78;100.00
60240;BME280;46102;39.012;-7.064;2024-02-16T09:14:06;99369.72;;;14.74;100.00
60240;BME280;46102;39.012;-7.064;2024-02-16T09:16:07;99369.56;;;14.80;100.00
60240;BME280;46102;39.012;-7.064;2024-02-16T09:18:07;99372.66;;;14.87;100.00
60240;BME280;46102;39.012;-7.064;2024-02-16T09:20:09;99387.59;;;14.94;100.00
60240;BME280;46102;39.012;-7.064;2024-02-16T09:22:10;99397.84;;;15.03;100.00
60240;BME280;46102;39.012;-7.064;2024-02-16T09:24:11;99396.34;;;15.14;100.00
60240;BME280;46102;39.012;-7.064;2024-02-16T09:26:17;99410.47;;;15.30;100.00
60240;BME280;46102;39.012;-7.064;2024-02-16T09:28:18;99407.34;;;15.49;100.00
60240;BME280;46102;39.012;-7.064;2024-02-16T09:30:19;99406.50;;;15.66;100.00
60240;BME280;46102;39.012;-7.064;2024-02-16T09:32:22;99403.56;;;15.71;100.00
60240;BME280;46102;39.012;-7.064;2024-02-16T09:34:23;99408.75;;;15.81;100.00
60240;BME280;46102;39.012;-7.064;2024-02-16T09:36:24;99416.03;;;15.94;100.00
60240;BME280;46102;39.012;-7.064;2024-02-16T09:38:24;99419.38;;;16.09;100.00
60240;BME280;46102;39.012;-7.064;2024-02-16T09:40:25;99412.16;;;16.16;100.00
60240;BME280;46102;39.012;-7.064;2024-02-16T09:42:26;99416.69;;;16.21;100.00
60240;BME280;46102;39.012;-7.064;2024-02-16T09:44:28;99415.34;;;16.27;100.00
60240;BME280;46102;39.012;-7.064;2024-02-16T09:46:30;99409.09;;;16.39;100.00
60240;BME280;46102;39.012;-7.064;2024-02-16T09:48:32;99408.88;;;16.53;100.00
60240;BME280;46102;39.012;-7.064;2024-02-16T09:50:33;99409.41;;;16.67;100.00
60240;BME280;46102;39.012;-7.064;2024-02-16T09:52:36;99408.63;;;16.88;100.00
60240;BME280;46102;39.012;-7.064;2024-02-16T09:54:37;99410.34;;;17.13;100.00
60240;BME280;46102;39.012;-7.064;2024-02-16T09:56:39;99411.47;;;17.33;100.00
60240;BME280;46102;39.012;-7.064;2024-02-16T09:58:40;99406.69;;;17.55;100.00
60240;BME280;46102;39.012;-7.064;2024-02-16T10:00:41;99408.72;;;17.79;96.67
60240;BME280;46102;39.012;-7.064;2024-02-16T10:02:43;99404.56;;;17.85;88.92
60240;BME280;46102;39.012;-7.064;2024-02-16T10:04:44;99408.03;;;17.94;90.94
60240;BME280;46102;39.012;-7.064;2024-02-16T10:06:47;99417.31;;;18.10;90.91
60240;BME280;46102;39.012;-7.064;2024-02-16T10:08:55;99411.19;;;18.29;88.13
60240;BME280;46102;39.012;-7.064;2024-02-16T10:11:03;99412.53;;;18.48;85.35
60240;BME280;46102;39.012;-7.064;2024-02-16T10:13:07;99411.94;;;18.67;83.55
60240;BME280;46102;39.012;-7.064;2024-02-16T10:15:09;99414.13;;;18.86;82.06
60240;BME280;46102;39.012;-7.064;2024-02-16T10:17:16;99412.13;;;18.99;77.65
60240;BME280;46102;39.012;-7.064;2024-02-16T10:19:17;99421.31;;;19.15;77.63
60240;BME280;46102;39.012;-7.064;2024-02-16T10:21:27;99411.97;;;19.35;76.05
60240;BME280;46102;39.012;-7.064;2024-02-16T10:23:28;99417.28;;;19.56;73.30
60240;BME280;46102;39.012;-7.064;2024-02-16T10:25:29;99419.59;;;19.83;69.99